sensor_id;sensor_type;location;lat;lon;timestamp;pressure;altitude;pressure_sealevel;temperature;humidity
30081;BME280;16902;50.816;12.828;2023-07-29T00:01:36;97239.16;;;18.20;100.00
30081;BME280;16902;50.816;12.828;2023-07-29T00:06:38;97239.06;;;18.15;100.00
30081;BME280;16902;50.816;12.828;2023-07-29T00:11:40;97237.91;;;17.89;100.00
30081;BME280;16902;50.816;12.828;2023-07-29T00:16:44;97233.19;;;17.91;100.00
30081;BME280;16902;50.816;12.828;2023-07-29T00:21:46;97221.75;;;17.86;100.00
30081;BME280;16902;50.816;12.828;2023-07-29T00:26:48;97224.66;;;17.72;100.00
30081;BME280;16902;50.816;12.828;2023-07-29T00:31:50;97214.84;;;17.68;100.00
30081;BME280;16902;50.816;12.828;2023-07-29T00:36:52;97215.28;;;17.77;100.00
30081;BME280;16902;50.816;12.828;2023-07-29T00:41:54;97214.84;;;17.68;100.00
30081;BME280;16902;50.816;12.828;2023-07-29T00:46:56;97207.34;;;17.60;100.00
30081;BME280;16902;50.816;12.828;2023-07-29T00:51:58;97206.16;;;17.67;100.00
30081;BME280;16902;50.816;12.828;2023-07-29T00:57:00;97200.09;;;17.67;100.00
30081;BME280;16902;50.816;12.828;2023-07-29T01:02:03;97182.13;;;17.47;100.00
30081;BME280;16902;50.816;12.828;2023-07-29T01:12:28;97177.59;;;16.85;100.00
30081;BME280;16902;50.816;12.828;2023-07-29T01:17:49;97177.75;;;17.07;100.00
30081;BME280;16902;50.816;12.828;2023-07-29T01:22:54;97163.00;;;17.06;100.00
30081;BME280;16902;50.816;12.828;2023-07-29T01:27:56;97180.94;;;17.09;100.00
30081;BME280;16902;50.816;12.828;2023-07-29T01:33:14;97178.22;;;17.04;100.00
30081;BME280;16902;50.816;12.828;2023-07-29T01:38:20;97176.44;;;16.93;100.00
30081;BME280;16902;50.816;12.828;2023-07-29T01:43:26;97190.81;;;17.02;100.00
30081;BME280;16902;50.816;12.828;2023-07-29T01:48:28;97186.66;;;17.06;100.00
30081;BME280;16902;50.816;12.828;2023-07-29T01:53:32;97190.84;;;17.19;100.00
30081;BME280;16902;50.816;12.828;2023-07-29T01:58:35;97196.38;;;17.34;100.00
30081;BME280;16902;50.816;12.828;2023-07-29T02:03:37;97202.59;;;17.28;100.00
30081;BME280;16902;50.816;12.828;2023-07-29T02:08:39;97200.22;;;17.43;100.00
30081;BME280;16902;50.816;12.828;2023-07-29T02:13:42;97204.88;;;17.53;100.00
30081;BME280;16902;50.816;12.828;2023-07-29T02:18:45;97213.44;;;17.60;100.00
30081;BME280;16902;50.816;12.828;2023-07-29T02:23:47;97215.09;;;17.66;100.00
30081;BME280;16902;50.816;12.828;2023-07-29T02:28:49;97207.06;;;17.73;100.00
30081;BME280;16902;50.816;12.828;2023-07-29T02:33:51;97214.59;;;17.69;100.00
30081;BME280;16902;50.816;12.828;2023-07-29T02:38:54;97204.53;;;17.78;100.00
30081;BME280;16902;50.816;12.828;2023-07-29T02:43:56;97209.06;;;17.83;100.00
30081;BME280;16902;50.816;12.828;2023-07-29T02:48:58;97205.63;;;17.82;100.00
30081;BME280;16902;50.816;12.828;2023-07-29T02:54:00;97196.63;;;17.78;100.00
30081;BME280;16902;50.816;12.828;2023-07-29T02:59:02;97202.47;;;17.80;100.00
30081;BME280;16902;50.816;12.828;2023-07-29T03:04:05;97198.44;;;17.78;100.00
30081;BME280;16902;50.816;12.828;2023-07-29T03:09:07;97204.75;;;17.77;100.00
30081;BME280;16902;50.816;12.828;2023-07-29T03:14:09;97196.31;;;17.75;100.00
30081;BME280;16902;50.816;12.828;2023-07-29T03:19:12;97189.91;;;17.70;100.00
30081;BME280;16902;50.816;12.828;2023-07-29T03:24:14;97181.44;;;17.68;100.00
30081;BME280;16902;50.816;12.828;2023-07-29T03:29:16;97186.06;;;17.61;100.00
30081;BME280;16902;50.816;12.828;2023-07-29T03:34:18;97184.22;;;17.62;100.00
30081;BME280;16902;50.816;12.828;2023-07-29T03:39:21;97188.53;;;17.51;100.00
30081;BME280;16902;50.816;12.828;2023-07-29T03:44:23;97188.13;;;17.59;100.00
30081;BME280;16902;50.816;12.828;2023-07-29T03:49:25;97196.88;;;17.77;100.00
30081;BME280;16902;50.816;12.828;2023-07-29T03:54:27;97199.41;;;17.88;100.00
30081;BME280;16902;50.816;12.828;2023-07-29T03:59:29;97193.03;;;18.01;100.00
30081;BME280;16902;50.816;12.828;2023-07-29T04:04:31;97189.13;;;18.04;100.00
30081;BME280;16902;50.816;12.828;2023-07-29T04:09:33;97189.34;;;18.02;100.00
30081;BME280;16902;50.816;12.828;2023-07-29T04:14:35;97186.00;;;18.07;100.00
30081;BME280;16902;50.816;12.828;2023-07-29T04:19:37;97181.66;;;18.17;100.00
30081;BME280;16902;50.816;12.828;2023-07-29T04:24:39;97181.84;;;18.11;100.00
30081;BME280;16902;50.816;12.828;2023-07-29T04:29:41;97185.19;;;18.23;100.00
30081;BME280;16902;50.816;12.828;2023-07-29T04:34:43;97184.34;;;18.39;100.00
30081;BME280;16902;50.816;12.828;2023-07-29T04:39:45;97177.88;;;18.47;100.00
30081;BME280;16902;50.816;12.828;2023-07-29T04:44:48;97186.13;;;18.56;100.00
30081;BME280;16902;50.816;12.828;2023-07-29T04:49:49;97184.66;;;18.65;100.00
30081;BME280;16902;50.816;12.828;2023-07-29T04:54:51;97172.03;;;18.67;100.00
30081;BME280;16902;50.816;12.828;2023-07-29T04:59:53;97180.91;;;18.78;100.00
30081;BME280;16902;50.816;12.828;2023-07-29T05:04:55;97164.66;;;18.86;100.00
30081;BME280;16902;50.816;12.828;2023-07-29T05:09:57;97155.09;;;19.07;100.00
30081;BME280;16902;50.816;12.828;2023-07-29T05:14:59;97155.50;;;19.20;100.00
30081;BME280;16902;50.816;12.828;2023-07-29T05:20:02;97146.28;;;19.23;100.00
30081;BME280;16902;50.816;12.828;2023-07-29T05:25:04;97149.34;;;19.42;100.00
30081;BME280;16902;50.816;12.828;2023-07-29T05:30:07;97156.38;;;19.58;100.00
30081;BME280;16902;50.816;12.828;2023-07-29T05:35:10;97154.84;;;19.67;100.00
30081;BME280;16902;50.816;12.828;2023-07-29T05:40:13;97155.59;;;19.95;100.00
30081;BME280;16902;50.816;12.828;2023-07-29T05:45:15;97164.97;;;20.13;100.00
30081;BME280;16902;50.816;12.828;2023-07-29T05:50:16;97171.41;;;20.27;100.00
30081;BME280;16902;50.816;12.828;2023-07-29T05:55:18;97166.09;;;20.27;100.00
30081;BME280;16902;50.816;12.828;2023-07-29T06:00:21;97169.38;;;19.97;100.00
30081;BME280;16902;50.816;12.828;2023-07-29T06:05:23;97173.19;;;19.79;100.00
30081;BME280;16902;50.816;12.828;2023-07-29T06:10:26;97172.50;;;19.94;100.00
30081;BME280;16902;50.816;12.828;2023-07-29T06:15:28;97173.25;;;20.26;100.00
30081;BME280;16902;50.816;12.828;2023-07-29T06:20:30;97169.59;;;20.38;100.00
30081;BME280;16902;50.816;12.828;2023-07-29T06:25:32;97167.47;;;20.40;100.00
30081;BME280;16902;50.816;12.828;2023-07-29T06:30:34;97176.56;;;20.54;100.00
30081;BME280;16902;50.816;12.828;2023-07-29T06:35:36;97166.59;;;20.66;100.00
30081;BME280;16902;50.816;12.828;2023-07-29T06:40:37;97178.06;;;20.97;100.00
30081;BME280;16902;50.816;12.828;2023-07-29T06:45:39;97182.13;;;21.30;100.00
30081;BME280;16902;50.816;12.828;2023-07-29T06:50:41;97171.53;;;21.41;100.00
30081;BME280;16902;50.816;12.828;2023-07-29T06:55:44;97168.84;;;21.15;100.00
30081;BME280;16902;50.816;12.828;2023-07-29T07:00:46;97173.97;;;20.64;100.00
30081;BME280;16902;50.816;12.828;2023-07-29T07:05:48;97168.25;;;20.40;100.00
30081;BME280;16902;50.816;12.828;2023-07-29T07:10:50;97157.50;;;20.47;100.00
30081;BME280;16902;50.816;12.828;2023-07-29T07:15:54;97165.34;;;20.94;100.00
30081;BME280;16902;50.816;12.828;2023-07-29T07:20:56;97148.41;;;20.85;100.00
30081;BME280;16902;50.816;12.828;2023-07-29T07:25:58;97146.41;;;21.33;100.00
30081;BME280;16902;50.816;12.828;2023-07-29T07:31:00;97147.16;;;21.90;100.00
30081;BME280;16902;50.816;12.828;2023-07-29T07:36:02;97130.19;;;22.21;100.00
30081;BME280;16902;50.816;12.828;2023-07-29T07:41:04;97119.03;;;22.24;100.00
30081;BME280;16902;50.816;12.828;2023-07-29T07:46:06;97103.69;;;22.16;100.00
30081;BME280;16902;50.816;12.828;2023-07-29T07:51:12;97096.69;;;22.41;100.00
30081;BME280;16902;50.816;12.828;2023-07-29T07:56:14;97087.56;;;22.62;100.00
30081;BME280;16902;50.816;12.828;2023-07-29T08:01:16;97090.31;;;23.30;100.00
30081;BME280;16902;50.816;12.828;2023-07-29T08:06:18;97093.13;;;23.78;100.00
30081;BME280;16902;50.816;12.828;2023-07-29T08:11:22;97111.69;;;23.83;100.00
30081;BME280;16902;50.816;12.828;2023-07-29T08:16:24;97121.44;;;24.17;100.00
30081;BME280;16902;50.816;12.828;2023-07-29T08:21:27;97127.06;;;23.23;100.00
30081;BME280;16902;50.816;12.828;2023-07-29T08:26:29;97135.44;;;22.96;100.00
30081;BME280;16902;50.816;12.828;2023-07-29T08:31:31;97137.47;;;22.60;100.00
30081;BME280;16902;50.816;12.828;2023-07-29T08:36:35;97133.75;;;22.61;100.00
30081;BME280;16902;50.816;12.828;2023-07-29T08:41:43;97127.19;;;23.03;100.00
30081;BME280;16902;50.816;12.828;2023-07-29T08:46:47;97126.09;;;23.09;100.00
30081;BME280;16902;50.816;12.828;2023-07-29T08:51:49;97122.75;;;23.67;100.00
30081;BME280;16902;50.816;12.828;2023-07-29T08:56:53;97124.41;;;23.57;100.00
30081;BME280;16902;50.816;12.828;2023-07-29T09:01:56;97126.06;;;23.82;100.00
30081;BME280;16902;50.816;12.828;2023-07-29T09:06:59;97121.03;;;24.58;100.00
30081;BME280;16902;50.816;12.828;2023-07-29T09:12:02;97125.31;;;24.06;100.00
30081;BME280;16902;50.816;12.828;2023-07-29T09:17:07;97127.91;;;23.14;100.00
30081;BME280;16902;50.816;12.828;2023-07-29T09:22:18;97123.00;;;22.22;100.00
30081;BME280;16902;50.816;12.828;2023-07-29T09:27:25;97113.13;;;22.43;100.00
30081;BME280;16902;50.816;12.828;2023-07-29T09:32:27;97101.94;;;23.05;100.00
30081;BME280;16902;50.816;12.828;2023-07-29T09:37:29;97100.81;;;23.17;100.00
30081;BME280;16902;50.816;12.828;2023-07-29T09:42:32;97111.44;;;22.62;100.00
30081;BME280;16902;50.816;12.828;2023-07-29T09:47:34;97112.88;;;22.39;100.00
30081;BME280;16902;50.816;12.828;2023-07-29T09:52:36;97119.19;;;22.53;100.00
30081;BME280;16902;50.816;12.828;2023-07-29T09:57:39;97115.59;;;22.19;100.00
30081;BME280;16902;50.816;12.828;2023-07-29T10:02:43;97115.09;;;21.96;100.00
30081;BME280;16902;50.816;12.828;2023-07-29T10:07:46;97111.66;;;21.91;100.00
30081;BME280;16902;50.816;12.828;2023-07-29T10:12:49;97124.06;;;22.26;100.00
30081;BME280;16902;50.816;12.828;2023-07-29T10:17:51;97121.81;;;22.58;100.00
30081;BME280;16902;50.816;12.828;2023-07-29T10:22:54;97110.59;;;22.72;100.00
30081;BME280;16902;50.816;12.828;2023-07-29T10:28:07;97107.34;;;22.90;100.00
30081;BME280;16902;50.816;12.828;2023-07-29T10:33:10;97116.88;;;22.91;100.00
30081;BME280;16902;50.816;12.828;2023-07-29T10:38:12;97115.38;;;22.75;100.00
30081;BME280;16902;50.816;12.828;2023-07-29T10:53:35;97120.88;;;22.94;100.00
30081;BME280;16902;50.816;12.828;2023-07-29T10:58:38;97124.53;;;22.48;100.00
30081;BME280;16902;50.816;12.828;2023-07-29T11:03:40;97116.97;;;21.96;100.00
30081;BME280;16902;50.816;12.828;2023-07-29T11:08:44;97121.47;;;22.00;100.00
30081;BME280;16902;50.816;12.828;2023-07-29T11:13:46;97119.63;;;21.86;100.00
30081;BME280;16902;50.816;12.828;2023-07-29T11:18:48;97127.84;;;21.69;100.00
30081;BME280;16902;50.816;12.828;2023-07-29T11:23:53;97108.22;;;21.75;100.00
30081;BME280;16902;50.816;12.828;2023-07-29T11:28:55;97099.47;;;21.85;100.00
30081;BME280;16902;50.816;12.828;2023-07-29T11:33:57;97098.69;;;21.84;100.00
30081;BME280;16902;50.816;12.828;2023-07-29T11:38:58;97097.59;;;21.85;100.00
30081;BME280;16902;50.816;12.828;2023-07-29T11:44:00;97102.13;;;21.85;100.00
30081;BME280;16902;50.816;12.828;2023-07-29T11:49:02;97110.31;;;22.03;100.00
30081;BME280;16902;50.816;12.828;2023-07-29T11:54:05;97108.22;;;22.00;100.00
30081;BME280;16902;50.816;12.828;2023-07-29T11:59:07;97107.72;;;21.63;100.00
30081;BME280;16902;50.816;12.828;2023-07-29T12:04:09;97088.34;;;21.06;100.00
30081;BME280;16902;50.816;12.828;2023-07-29T12:09:12;97074.03;;;20.76;100.00
30081;BME280;16902;50.816;12.828;2023-07-29T12:14:16;97067.09;;;20.55;100.00
30081;BME280;16902;50.816;12.828;2023-07-29T12:19:19;97054.97;;;19.59;100.00
30081;BME280;16902;50.816;12.828;2023-07-29T12:24:22;97073.38;;;19.49;100.00
30081;BME280;16902;50.816;12.828;2023-07-29T12:29:25;97079.81;;;22.06;100.00
30081;BME280;16902;50.816;12.828;2023-07-29T12:34:28;97082.06;;;23.95;100.00
30081;BME280;16902;50.816;12.828;2023-07-29T12:39:33;97080.03;;;25.95;100.00
30081;BME280;16902;50.816;12.828;2023-07-29T12:44:36;97071.72;;;23.70;100.00
30081;BME280;16902;50.816;12.828;2023-07-29T12:49:38;97076.34;;;23.20;100.00
30081;BME280;16902;50.816;12.828;2023-07-29T12:54:40;97069.88;;;25.97;100.00
30081;BME280;16902;50.816;12.828;2023-07-29T12:59:43;97066.50;;;28.43;100.00
30081;BME280;16902;50.816;12.828;2023-07-29T13:04:45;97061.84;;;30.50;100.00
30081;BME280;16902;50.816;12.828;2023-07-29T13:09:47;97051.13;;;28.92;100.00
30081;BME280;16902;50.816;12.828;2023-07-29T13:14:49;97056.41;;;29.53;100.00
30081;BME280;16902;50.816;12.828;2023-07-29T13:19:51;97051.47;;;28.33;100.00
30081;BME280;16902;50.816;12.828;2023-07-29T13:24:53;97060.47;;;30.23;99.88
30081;BME280;16902;50.816;12.828;2023-07-29T13:29:55;97058.69;;;30.98;90.54
30081;BME280;16902;50.816;12.828;2023-07-29T13:34:57;97062.50;;;30.77;85.89
30081;BME280;16902;50.816;12.828;2023-07-29T13:39:59;97061.28;;;30.06;81.70
30081;BME280;16902;50.816;12.828;2023-07-29T13:45:02;97046.25;;;30.23;86.91
30081;BME280;16902;50.816;12.828;2023-07-29T13:50:04;97040.03;;;30.81;81.99
30081;BME280;16902;50.816;12.828;2023-07-29T13:55:07;97039.69;;;32.07;66.09
30081;BME280;16902;50.816;12.828;2023-07-29T14:00:09;97024.69;;;31.15;62.77
30081;BME280;16902;50.816;12.828;2023-07-29T14:05:13;97029.44;;;32.89;56.66
30081;BME280;16902;50.816;12.828;2023-07-29T14:10:16;97021.56;;;31.58;55.68
30081;BME280;16902;50.816;12.828;2023-07-29T14:15:18;97007.03;;;31.84;57.27
30081;BME280;16902;50.816;12.828;2023-07-29T14:20:20;96997.03;;;30.81;65.13
30081;BME280;16902;50.816;12.828;2023-07-29T14:25:23;97014.00;;;31.97;59.06
30081;BME280;16902;50.816;12.828;2023-07-29T14:30:25;96993.44;;;31.22;59.97
30081;BME280;16902;50.816;12.828;2023-07-29T14:35:27;97014.66;;;32.31;52.61
30081;BME280;16902;50.816;12.828;2023-07-29T14:40:29;96999.94;;;32.40;54.33
30081;BME280;16902;50.816;12.828;2023-07-29T14:45:31;97003.72;;;33.20;50.23
30081;BME280;16902;50.816;12.828;2023-07-29T14:50:33;96986.31;;;32.49;50.54
30081;BME280;16902;50.816;12.828;2023-07-29T14:55:35;96996.22;;;30.09;74.17
30081;BME280;16902;50.816;12.828;2023-07-29T15:00:37;96989.84;;;32.37;53.93
30081;BME280;16902;50.816;12.828;2023-07-29T15:05:39;96986.72;;;32.11;57.42
30081;BME280;16902;50.816;12.828;2023-07-29T15:10:48;96980.03;;;32.85;53.11
30081;BME280;16902;50.816;12.828;2023-07-29T15:15:50;96979.22;;;28.25;89.14
30081;BME280;16902;50.816;12.828;2023-07-29T15:20:52;96966.00;;;26.28;100.00
30081;BME280;16902;50.816;12.828;2023-07-29T15:25:54;96978.47;;;25.63;100.00
30081;BME280;16902;50.816;12.828;2023-07-29T15:30:56;96980.19;;;24.94;100.00
30081;BME280;16902;50.816;12.828;2023-07-29T15:35:58;96981.34;;;24.88;100.00
30081;BME280;16902;50.816;12.828;2023-07-29T15:41:00;96977.06;;;24.73;100.00
30081;BME280;16902;50.816;12.828;2023-07-29T15:46:02;96997.88;;;24.52;100.00
30081;BME280;16902;50.816;12.828;2023-07-29T15:51:04;96997.06;;;24.33;100.00
30081;BME280;16902;50.816;12.828;2023-07-29T15:56:07;96999.78;;;24.28;100.00
30081;BME280;16902;50.816;12.828;2023-07-29T16:01:09;97008.81;;;24.08;100.00
30081;BME280;16902;50.816;12.828;2023-07-29T16:06:11;97013.44;;;23.73;100.00
30081;BME280;16902;50.816;12.828;2023-07-29T16:11:13;97036.41;;;22.51;100.00
30081;BME280;16902;50.816;12.828;2023-07-29T16:16:15;97069.25;;;21.80;100.00
30081;BME280;16902;50.816;12.828;2023-07-29T16:21:17;97080.13;;;20.92;100.00
30081;BME280;16902;50.816;12.828;2023-07-29T16:26:22;97095.13;;;19.98;100.00
30081;BME280;16902;50.816;12.828;2023-07-29T16:31:23;97111.25;;;17.91;100.00
30081;BME280;16902;50.816;12.828;2023-07-29T16:36:25;97092.97;;;17.17;100.00
30081;BME280;16902;50.816;12.828;2023-07-29T16:41:27;97111.34;;;17.00;100.00
30081;BME280;16902;50.816;12.828;2023-07-29T16:46:49;97125.72;;;16.81;100.00
30081;BME280;16902;50.816;12.828;2023-07-29T16:51:51;97113.94;;;16.83;100.00
30081;BME280;16902;50.816;12.828;2023-07-29T16:56:53;97102.75;;;17.05;100.00
30081;BME280;16902;50.816;12.828;2023-07-29T17:01:55;97106.44;;;17.71;100.00
30081;BME280;16902;50.816;12.828;2023-07-29T17:06:57;97102.75;;;18.06;100.00
30081;BME280;16902;50.816;12.828;2023-07-29T17:11:59;97122.94;;;18.00;100.00
30081;BME280;16902;50.816;12.828;2023-07-29T17:17:01;97119.00;;;18.19;100.00
30081;BME280;16902;50.816;12.828;2023-07-29T17:22:03;97136.28;;;18.32;100.00
30081;BME280;16902;50.816;12.828;2023-07-29T17:27:05;97138.78;;;18.22;100.00
30081;BME280;16902;50.816;12.828;2023-07-29T17:32:07;97141.13;;;18.18;100.00
30081;BME280;16902;50.816;12.828;2023-07-29T17:37:09;97160.88;;;17.99;100.00
30081;BME280;16902;50.816;12.828;2023-07-29T17:42:11;97162.28;;;18.07;100.00
30081;BME280;16902;50.816;12.828;2023-07-29T17:47:13;97168.53;;;18.01;100.00
30081;BME280;16902;50.816;12.828;2023-07-29T17:52:16;97169.16;;;17.57;100.00
30081;BME280;16902;50.816;12.828;2023-07-29T17:57:18;97179.72;;;17.29;100.00
30081;BME280;16902;50.816;12.828;2023-07-29T18:02:20;97178.25;;;17.21;100.00
30081;BME280;16902;50.816;12.828;2023-07-29T18:07:22;97167.78;;;17.09;100.00
30081;BME280;16902;50.816;12.828;2023-07-29T18:12:24;97173.91;;;16.98;100.00
30081;BME280;16902;50.816;12.828;2023-07-29T18:17:26;97174.19;;;16.85;100.00
30081;BME280;16902;50.816;12.828;2023-07-29T18:22:28;97169.41;;;16.70;100.00
30081;BME280;16902;50.816;12.828;2023-07-29T18:27:30;97171.69;;;16.66;100.00
30081;BME280;16902;50.816;12.828;2023-07-29T18:32:32;97183.56;;;16.69;100.00
30081;BME280;16902;50.816;12.828;2023-07-29T18:37:35;97179.31;;;16.68;100.00
30081;BME280;16902;50.816;12.828;2023-07-29T18:42:37;97177.88;;;16.49;100.00
30081;BME280;16902;50.816;12.828;2023-07-29T18:47:39;97184.56;;;16.39;100.00
30081;BME280;16902;50.816;12.828;2023-07-29T18:52:40;97184.56;;;16.39;100.00
30081;BME280;16902;50.816;12.828;2023-07-29T18:57:42;97185.94;;;16.30;100.00
30081;BME280;16902;50.816;12.828;2023-07-29T19:02:44;97187.16;;;16.28;100.00
30081;BME280;16902;50.816;12.828;2023-07-29T19:07:46;97183.06;;;16.08;100.00
30081;BME280;16902;50.816;12.828;2023-07-29T19:12:48;97189.81;;;15.92;100.00
30081;BME280;16902;50.816;12.828;2023-07-29T19:17:57;97193.47;;;15.61;100.00
30081;BME280;16902;50.816;12.828;2023-07-29T19:22:59;97192.28;;;15.34;100.00
30081;BME280;16902;50.816;12.828;2023-07-29T19:28:01;97188.81;;;15.22;100.00
30081;BME280;16902;50.816;12.828;2023-07-29T19:33:03;97203.00;;;15.02;100.00
30081;BME280;16902;50.816;12.828;2023-07-29T19:38:05;97207.25;;;14.85;100.00
30081;BME280;16902;50.816;12.828;2023-07-29T19:43:07;97217.00;;;14.78;100.00
30081;BME280;16902;50.816;12.828;2023-07-29T19:48:09;97209.50;;;14.81;100.00
30081;BME280;16902;50.816;12.828;2023-07-29T19:53:10;97215.47;;;14.88;100.00
30081;BME280;16902;50.816;12.828;2023-07-29T19:58:12;97209.88;;;14.85;100.00
30081;BME280;16902;50.816;12.828;2023-07-29T20:03:14;97199.56;;;14.72;100.00
30081;BME280;16902;50.816;12.828;2023-07-29T20:08:16;97204.94;;;14.58;100.00
30081;BME280;16902;50.816;12.828;2023-07-29T20:13:18;97212.28;;;14.50;100.00
30081;BME280;16902;50.816;12.828;2023-07-29T20:18:20;97217.59;;;14.61;100.00
30081;BME280;16902;50.816;12.828;2023-07-29T20:23:24;97225.09;;;14.58;100.00
30081;BME280;16902;50.816;12.828;2023-07-29T20:28:26;97222.25;;;14.59;100.00
30081;BME280;16902;50.816;12.828;2023-07-29T20:33:28;97222.19;;;14.48;100.00
30081;BME280;16902;50.816;12.828;2023-07-29T20:38:30;97220.81;;;14.38;100.00
30081;BME280;16902;50.816;12.828;2023-07-29T20:43:32;97225.13;;;14.33;100.00
30081;BME280;16902;50.816;12.828;2023-07-29T20:48:34;97215.13;;;14.23;100.00
30081;BME280;16902;50.816;12.828;2023-07-29T20:53:36;97226.41;;;14.24;100.00
30081;BME280;16902;50.816;12.828;2023-07-29T20:58:38;97213.75;;;14.21;100.00
30081;BME280;16902;50.816;12.828;2023-07-29T21:03:40;97227.59;;;14.28;100.00
30081;BME280;16902;50.816;12.828;2023-07-29T21:08:42;97230.41;;;14.26;100.00
30081;BME280;16902;50.816;12.828;2023-07-29T21:13:43;97222.47;;;14.14;100.00
30081;BME280;16902;50.816;12.828;2023-07-29T21:18:48;97223.75;;;14.05;100.00
30081;BME280;16902;50.816;12.828;2023-07-29T21:23:50;97222.63;;;13.95;100.00
30081;BME280;16902;50.816;12.828;2023-07-29T21:28:52;97231.19;;;13.83;100.00
30081;BME280;16902;50.816;12.828;2023-07-29T21:33:54;97227.44;;;13.73;100.00
30081;BME280;16902;50.816;12.828;2023-07-29T21:38:56;97216.63;;;13.62;100.00
30081;BME280;16902;50.816;12.828;2023-07-29T21:43:59;97216.06;;;13.60;100.00
30081;BME280;16902;50.816;12.828;2023-07-29T21:49:01;97212.66;;;13.60;100.00
30081;BME280;16902;50.816;12.828;2023-07-29T21:54:03;97219.41;;;13.68;100.00
30081;BME280;16902;50.816;12.828;2023-07-29T21:59:05;97226.53;;;13.60;100.00
30081;BME280;16902;50.816;12.828;2023-07-29T22:04:07;97236.84;;;13.80;100.00
30081;BME280;16902;50.816;12.828;2023-07-29T22:09:09;97234.38;;;13.85;100.00
30081;BME280;16902;50.816;12.828;2023-07-29T22:14:10;97237.06;;;13.79;100.00
30081;BME280;16902;50.816;12.828;2023-07-29T22:19:13;97248.31;;;13.79;100.00
30081;BME280;16902;50.816;12.828;2023-07-29T22:24:14;97246.81;;;13.65;100.00
30081;BME280;16902;50.816;12.828;2023-07-29T22:29:16;97253.53;;;13.48;100.00
30081;BME280;16902;50.816;12.828;2023-07-29T22:34:18;97245.34;;;13.44;100.00
30081;BME280;16902;50.816;12.828;2023-07-29T22:39:21;97254.56;;;13.47;100.00
30081;BME280;16902;50.816;12.828;2023-07-29T22:44:23;97239.34;;;13.37;100.00
30081;BME280;16902;50.816;12.828;2023-07-29T22:49:25;97257.47;;;13.32;100.00
30081;BME280;16902;50.816;12.828;2023-07-29T22:54:26;97249.84;;;13.24;100.00
30081;BME280;16902;50.816;12.828;2023-07-29T22:59:28;97258.72;;;13.16;100.00
30081;BME280;16902;50.816;12.828;2023-07-29T23:04:30;97252.72;;;13.09;100.00
30081;BME280;16902;50.816;12.828;2023-07-29T23:09:32;97262.75;;;13.12;100.00
30081;BME280;16902;50.816;12.828;2023-07-29T23:14:34;97264.75;;;13.23;100.00
30081;BME280;16902;50.816;12.828;2023-07-29T23:19:36;97259.13;;;13.58;100.00
30081;BME280;16902;50.816;12.828;2023-07-29T23:24:38;97261.03;;;13.76;100.00
30081;BME280;16902;50.816;12.828;2023-07-29T23:29:40;97263.00;;;13.80;100.00
30081;BME280;16902;50.816;12.828;2023-07-29T23:34:42;97253.41;;;13.74;100.00
30081;BME280;16902;50.816;12.828;2023-07-29T23:39:44;97247.44;;;13.60;100.00
30081;BME280;16902;50.816;12.828;2023-07-29T23:44:46;97242.97;;;13.68;100.00
30081;BME280;16902;50.816;12.828;2023-07-29T23:49:48;97240.50;;;13.73;100.00
30081;BME280;16902;50.816;12.828;2023-07-29T23:54:50;97226.16;;;13.82;100.00
30081;BME280;16902;50.816;12.828;2023-07-29T23:59:52;97232.31;;;13.94;100.00
